Time;durP1;ratioP1;P1;durP2;ratioP2;P2;SDS_P1;SDS_P2;PMS_P1;PMS_P2;Temp;Humidity;BMP_temperature;BMP_pressure;BME280_temperature;BME280_humidity;BME280_pressure;Samples;Min_cycle;Max_cycle;Signal;HPM_P1;HPM_P2
2020/12/04 00:00:14;;;;;;;31.90;16.40;;;-1.70;99.40;;;;;;5007722;28;20210;-61
2020/12/04 00:02:40;;;;;;;30.77;15.87;;;-1.70;99.70;;;;;;5010354;28;20188;-61
2020/12/04 00:05:06;;;;;;;26.87;14.93;;;-1.70;99.70;;;;;;5012593;28;20511;-61
2020/12/04 00:07:32;;;;;;;32.43;17.17;;;-1.80;99.60;;;;;;5008994;28;20432;-61
2020/12/04 00:09:58;;;;;;;30.73;15.17;;;-1.80;99.80;;;;;;5005189;28;21076;-62
2020/12/04 00:12:24;;;;;;;28.37;14.70;;;-1.90;99.90;;;;;;5006215;28;20194;-62
2020/12/04 00:14:50;;;;;;;29.13;14.20;;;-1.90;99.90;;;;;;5005406;28;20436;-61
2020/12/04 00:17:16;;;;;;;26.67;15.00;;;-1.80;99.90;;;;;;5010282;28;20507;-61
2020/12/04 00:19:41;;;;;;;28.77;14.63;;;-1.80;99.90;;;;;;5007600;28;20496;-61
2020/12/04 00:22:07;;;;;;;28.10;13.37;;;-1.70;99.90;;;;;;5004437;28;20567;-61
2020/12/04 00:24:33;;;;;;;25.17;12.93;;;-1.70;99.90;;;;;;5005777;28;20615;-61
2020/12/04 00:26:59;;;;;;;24.33;13.97;;;-1.60;99.90;;;;;;5008984;28;20280;-62
2020/12/04 00:29:26;;;;;;;25.03;14.17;;;-1.60;99.90;;;;;;5004623;28;20754;-61
2020/12/04 00:31:56;;;;;;;27.33;13.77;;;-1.50;99.90;;;;;;5010385;28;20463;-62
2020/12/04 00:34:22;;;;;;;31.90;14.73;;;-1.50;99.90;;;;;;5012474;28;20437;-61
2020/12/04 00:36:49;;;;;;;26.53;14.00;;;-1.50;99.90;;;;;;5009340;28;20436;-61
2020/12/04 00:39:15;;;;;;;31.37;15.23;;;-1.50;99.90;;;;;;5008326;28;20811;-61
2020/12/04 00:41:42;;;;;;;27.40;13.97;;;-1.50;99.90;;;;;;5007642;28;20528;-62
2020/12/04 00:44:07;;;;;;;31.60;15.30;;;-1.50;99.90;;;;;;5004830;28;20429;-61
2020/12/04 00:46:33;;;;;;;28.17;14.10;;;-1.40;99.90;;;;;;5006556;28;20429;-61
2020/12/04 00:48:59;;;;;;;32.30;14.30;;;-1.50;99.90;;;;;;5009534;28;20204;-62
2020/12/04 00:51:25;;;;;;;25.87;13.73;;;-1.50;99.90;;;;;;5009883;28;20197;-61
2020/12/04 00:53:50;;;;;;;26.90;14.10;;;-1.50;99.90;;;;;;5010779;28;20175;-61
2020/12/04 00:56:17;;;;;;;27.13;14.03;;;-1.50;99.90;;;;;;5003687;28;20851;-61
2020/12/04 00:58:46;;;;;;;29.00;13.37;;;-1.60;99.90;;;;;;5009255;28;20286;-61
2020/12/04 01:01:12;;;;;;;26.60;13.57;;;-1.60;99.90;;;;;;5008248;28;20446;-61
2020/12/04 01:03:38;;;;;;;28.20;14.60;;;-1.60;99.90;;;;;;5006926;28;20987;-61
2020/12/04 01:06:04;;;;;;;29.77;14.67;;;-1.60;99.90;;;;;;5009355;28;20436;-61
2020/12/04 01:08:29;;;;;;;28.90;14.10;;;-1.50;99.90;;;;;;5012218;28;20229;-62
2020/12/04 01:10:56;;;;;;;32.23;15.87;;;-1.60;99.90;;;;;;5004892;28;20461;-62
2020/12/04 01:13:22;;;;;;;25.07;14.00;;;-1.60;99.90;;;;;;5009762;28;20607;-62
2020/12/04 01:15:47;;;;;;;32.00;14.80;;;-1.60;99.90;;;;;;5015090;28;20430;-62
2020/12/04 01:18:13;;;;;;;31.13;14.83;;;-1.60;99.90;;;;;;5007880;28;20441;-62
2020/12/04 01:20:39;;;;;;;30.10;15.00;;;-1.60;99.90;;;;;;5002602;28;20526;-61
2020/12/04 01:23:05;;;;;;;29.17;13.90;;;-1.50;99.90;;;;;;5004883;28;20788;-61
2020/12/04 01:25:30;;;;;;;25.30;13.93;;;-1.50;99.90;;;;;;5009349;28;20197;-61
2020/12/04 01:27:56;;;;;;;24.37;13.50;;;-1.50;99.90;;;;;;5011781;28;20206;-61
2020/12/04 01:30:22;;;;;;;28.57;14.70;;;-1.50;99.90;;;;;;5013319;28;20563;-62
2020/12/04 01:32:48;;;;;;;27.23;14.13;;;-1.50;99.90;;;;;;5010333;28;20185;-62
2020/12/04 01:35:14;;;;;;;35.03;16.67;;;-1.60;99.90;;;;;;5013199;28;20178;-61
2020/12/04 01:37:40;;;;;;;28.00;14.87;;;-1.60;99.90;;;;;;5008639;28;20215;-62
2020/12/04 01:40:07;;;;;;;26.77;14.03;;;-1.60;99.90;;;;;;5011414;28;20445;-62
2020/12/04 01:42:32;;;;;;;28.20;13.10;;;-1.60;99.90;;;;;;5009913;28;21334;-61
2020/12/04 01:44:58;;;;;;;28.60;14.47;;;-1.60;99.90;;;;;;4988983;28;20197;-63
2020/12/04 01:47:24;;;;;;;30.23;14.30;;;-1.60;99.90;;;;;;5011457;28;20182;-62
2020/12/04 01:49:51;;;;;;;28.80;13.73;;;-1.50;99.90;;;;;;5010725;28;20506;-62
2020/12/04 01:52:17;;;;;;;31.63;14.03;;;-1.50;99.90;;;;;;5011074;28;20547;-61
2020/12/04 01:54:47;;;;;;;26.27;13.87;;;-1.50;99.90;;;;;;5004826;28;20440;-61
2020/12/04 01:57:15;;;;;;;26.53;13.50;;;-1.50;99.90;;;;;;5006577;28;20445;-61
2020/12/04 01:59:40;;;;;;;32.60;14.27;;;-1.50;99.90;;;;;;5011293;28;20969;-61
2020/12/04 02:02:22;;;;;;;30.77;13.83;;;-1.50;99.90;;;;;;5011322;28;20470;-61
2020/12/04 02:04:49;;;;;;;33.70;15.07;;;-1.50;99.90;;;;;;5012558;28;20182;-61
2020/12/04 02:07:25;;;;;;;25.80;13.87;;;-1.50;99.90;;;;;;5000420;28;20503;-62
2020/12/04 02:09:55;;;;;;;34.77;15.13;;;-1.40;99.90;;;;;;5012729;28;20950;-62
2020/12/04 02:12:23;;;;;;;30.50;14.27;;;-1.40;99.90;;;;;;5009730;28;20464;-61
2020/12/04 02:14:49;;;;;;;28.70;14.20;;;-1.40;99.90;;;;;;5015567;28;20472;-62
2020/12/04 02:17:15;;;;;;;27.93;13.30;;;-1.40;99.90;;;;;;5009866;28;20921;-61
2020/12/04 02:19:43;;;;;;;29.90;15.77;;;-1.50;99.90;;;;;;5002309;28;20516;-62
2020/12/04 02:22:11;;;;;;;30.27;15.33;;;-1.40;99.90;;;;;;5005299;28;20435;-62
2020/12/04 02:24:40;;;;;;;33.40;15.23;;;-1.40;99.90;;;;;;5011558;28;20473;-61
2020/12/04 02:27:08;;;;;;;26.83;12.97;;;-1.40;99.90;;;;;;5008421;28;20473;-61
2020/12/04 02:29:36;;;;;;;28.97;15.03;;;-1.40;99.90;;;;;;5008739;28;20456;-61
2020/12/04 02:32:01;;;;;;;27.50;13.97;;;-1.40;99.90;;;;;;5009794;28;20467;-61
2020/12/04 02:34:27;;;;;;;26.13;14.20;;;-1.40;99.90;;;;;;5011848;28;20425;-62
2020/12/04 02:36:55;;;;;;;29.93;13.90;;;-1.40;99.90;;;;;;5012134;28;20176;-60
2020/12/04 02:39:21;;;;;;;27.80;14.40;;;-1.40;99.90;;;;;;5010691;28;20208;-61
2020/12/04 02:41:47;;;;;;;29.87;15.00;;;-1.40;99.90;;;;;;5007087;28;20469;-61
2020/12/04 02:44:13;;;;;;;26.73;14.10;;;-1.40;99.90;;;;;;4995035;28;20196;-62
2020/12/04 02:46:39;;;;;;;30.13;13.17;;;-1.40;99.90;;;;;;5010885;28;20585;-61
2020/12/04 02:49:05;;;;;;;28.60;14.50;;;-1.40;99.90;;;;;;5010744;28;20457;-61
2020/12/04 02:51:31;;;;;;;28.00;13.50;;;-1.40;99.90;;;;;;5019476;28;20199;-61
2020/12/04 02:53:56;;;;;;;30.67;15.13;;;-1.40;99.90;;;;;;5009517;28;20437;-61
2020/12/04 02:56:22;;;;;;;28.30;14.67;;;-1.40;99.90;;;;;;5014136;28;20667;-61
2020/12/04 02:58:47;;;;;;;24.80;13.43;;;-1.40;99.90;;;;;;5012539;28;20789;-61
2020/12/04 03:01:13;;;;;;;30.00;13.83;;;-1.40;99.90;;;;;;5010940;28;20540;-61
2020/12/04 03:03:39;;;;;;;31.23;14.90;;;-1.40;99.90;;;;;;5008995;28;20328;-61
2020/12/04 03:06:05;;;;;;;25.90;14.70;;;-1.40;99.90;;;;;;5010343;28;20519;-61
2020/12/04 03:08:31;;;;;;;27.10;13.43;;;-1.40;99.90;;;;;;5008260;28;20216;-61
2020/12/04 03:10:57;;;;;;;27.30;14.40;;;-1.40;99.90;;;;;;5006635;28;20219;-61
2020/12/04 03:13:23;;;;;;;26.10;12.23;;;-1.30;99.90;;;;;;5009457;28;20441;-61
2020/12/04 03:15:51;;;;;;;24.37;11.87;;;-1.40;99.90;;;;;;5008491;28;20690;-61
2020/12/04 03:18:17;;;;;;;25.27;13.43;;;-1.30;99.90;;;;;;5013222;28;20433;-61
2020/12/04 03:20:42;;;;;;;26.70;12.97;;;-1.30;99.90;;;;;;5008187;28;20518;-61
2020/12/04 03:23:08;;;;;;;31.90;13.87;;;-1.20;99.90;;;;;;5009804;28;20213;-62
2020/12/04 03:25:34;;;;;;;24.20;13.37;;;-1.20;99.90;;;;;;5007542;28;20186;-62
2020/12/04 03:28:00;;;;;;;26.37;13.70;;;-1.20;99.90;;;;;;5007123;28;20208;-61
2020/12/04 03:30:25;;;;;;;30.03;13.90;;;-1.20;99.90;;;;;;5008965;28;20779;-61
2020/12/04 03:32:51;;;;;;;28.37;14.23;;;-1.20;99.90;;;;;;5009808;28;20264;-61
2020/12/04 03:35:17;;;;;;;31.10;14.03;;;-1.10;99.90;;;;;;5007210;28;20186;-61
2020/12/04 03:37:43;;;;;;;24.40;12.60;;;-1.10;99.90;;;;;;5010475;28;20486;-61
2020/12/04 03:40:08;;;;;;;21.40;12.33;;;-1.10;99.90;;;;;;5005159;28;20209;-63
2020/12/04 03:42:34;;;;;;;30.07;14.57;;;-1.10;99.90;;;;;;5010334;28;20195;-61
2020/12/04 03:44:59;;;;;;;30.97;14.37;;;-1.00;99.90;;;;;;5010917;28;20182;-61
2020/12/04 03:47:25;;;;;;;26.13;13.13;;;-1.00;99.90;;;;;;5006376;28;20192;-61
2020/12/04 03:49:51;;;;;;;31.60;14.00;;;-1.00;99.90;;;;;;5010303;28;20217;-61
2020/12/04 03:52:20;;;;;;;27.17;12.93;;;-1.00;99.90;;;;;;5007772;28;20457;-61
2020/12/04 03:54:46;;;;;;;27.13;14.70;;;-1.00;99.90;;;;;;5008054;28;20174;-61
2020/12/04 03:57:12;;;;;;;31.03;14.13;;;-1.00;99.90;;;;;;5009696;28;20825;-63
2020/12/04 03:59:38;;;;;;;29.40;13.80;;;-1.00;99.90;;;;;;5015892;28;20456;-61
2020/12/04 04:02:04;;;;;;;34.20;15.07;;;-1.00;99.90;;;;;;5008831;28;20184;-61
2020/12/04 04:04:29;;;;;;;24.93;13.13;;;-1.00;99.90;;;;;;5008111;28;20283;-61
2020/12/04 04:06:56;;;;;;;30.20;14.20;;;-1.00;99.90;;;;;;5013875;28;20244;-61
2020/12/04 04:09:22;;;;;;;29.00;15.17;;;-1.00;99.90;;;;;;5009122;28;20460;-61
2020/12/04 04:11:48;;;;;;;22.93;13.50;;;-1.00;99.90;;;;;;5000639;28;20463;-61
2020/12/04 04:14:13;;;;;;;30.53;14.13;;;-0.90;99.90;;;;;;5014296;28;20814;-61
2020/12/04 04:16:39;;;;;;;30.10;14.40;;;-0.90;99.90;;;;;;5015020;28;20230;-62
2020/12/04 04:19:04;;;;;;;25.80;14.87;;;-0.80;99.90;;;;;;5008822;28;20264;-61
2020/12/04 04:21:30;;;;;;;27.97;14.23;;;-0.80;99.90;;;;;;5010774;28;20185;-61
2020/12/04 04:23:56;;;;;;;27.47;14.70;;;-0.80;99.90;;;;;;5005867;28;20668;-62
2020/12/04 04:26:22;;;;;;;30.60;14.17;;;-0.80;99.90;;;;;;5005348;28;20583;-61
2020/12/04 04:28:48;;;;;;;28.87;12.83;;;-0.80;99.90;;;;;;5007263;28;20223;-61
2020/12/04 04:31:13;;;;;;;29.30;13.63;;;-0.80;99.90;;;;;;5009033;28;20459;-61
2020/12/04 04:33:39;;;;;;;27.10;14.40;;;-0.80;99.90;;;;;;5008714;28;20189;-62
2020/12/04 04:36:05;;;;;;;28.03;15.27;;;-0.80;99.90;;;;;;5006563;28;20192;-61
2020/12/04 04:38:31;;;;;;;26.90;13.57;;;-0.80;99.90;;;;;;5004813;28;20449;-61
2020/12/04 04:40:58;;;;;;;33.80;14.80;;;-0.80;99.90;;;;;;5008646;28;20465;-61
2020/12/04 04:43:25;;;;;;;30.13;15.33;;;-0.80;99.90;;;;;;5011803;28;20239;-62
2020/12/04 04:45:50;;;;;;;30.40;14.77;;;-0.80;99.90;;;;;;5015245;28;20438;-61
2020/12/04 04:48:24;;;;;;;29.27;14.63;;;-0.80;99.90;;;;;;5002426;28;20546;-61
2020/12/04 04:50:53;;;;;;;27.63;13.83;;;-0.80;99.90;;;;;;5002599;28;20199;-61
2020/12/04 04:53:20;;;;;;;27.33;14.70;;;-0.70;99.90;;;;;;4998663;28;20441;-61
2020/12/04 04:55:45;;;;;;;24.90;12.70;;;-0.70;99.90;;;;;;5000457;28;21137;-61
2020/12/04 04:58:11;;;;;;;29.70;14.43;;;-0.70;99.90;;;;;;5005851;28;20436;-63
2020/12/04 05:00:37;;;;;;;25.00;12.80;;;-0.70;99.90;;;;;;5013608;28;20176;-61
2020/12/04 05:03:09;;;;;;;28.90;15.13;;;-0.70;99.90;;;;;;5024639;28;20194;-61
2020/12/04 05:05:42;;;;;;;30.60;14.03;;;-0.70;99.90;;;;;;5022538;28;20469;-61
2020/12/04 05:08:19;;;;;;;28.63;12.63;;;-0.70;99.90;;;;;;5003512;28;20472;-63
2020/12/04 05:10:46;;;;;;;27.60;13.63;;;-0.70;99.90;;;;;;4998123;28;20464;-61
2020/12/04 05:13:16;;;;;;;25.40;13.70;;;-0.70;99.90;;;;;;5011989;28;20437;-61
2020/12/04 05:15:42;;;;;;;22.97;13.00;;;-0.80;99.90;;;;;;5009309;28;20482;-60
2020/12/04 05:18:13;;;;;;;27.70;14.50;;;-0.80;99.90;;;;;;5010274;28;20469;-62
2020/12/04 05:20:45;;;;;;;24.60;13.17;;;-0.80;99.90;;;;;;5017721;28;20206;-61
2020/12/04 05:23:11;;;;;;;23.40;12.30;;;-0.80;99.90;;;;;;5001009;28;20786;-61
2020/12/04 05:25:46;;;;;;;25.83;13.30;;;-0.80;99.90;;;;;;4991456;28;20436;-61
2020/12/04 05:28:16;;;;;;;29.80;15.13;;;-0.70;99.90;;;;;;4999164;28;21178;-61
2020/12/04 05:30:45;;;;;;;29.67;14.00;;;-0.70;99.90;;;;;;5015584;28;20463;-62
2020/12/04 05:33:11;;;;;;;28.17;13.00;;;-0.70;99.90;;;;;;5000714;28;21008;-62
2020/12/04 05:35:37;;;;;;;30.27;13.80;;;-0.70;99.90;;;;;;5002813;28;20511;-66
2020/12/04 05:38:22;;;;;;;33.13;14.40;;;-0.70;99.90;;;;;;4989854;28;21604;-63
2020/12/04 05:41:05;;;;;;;30.83;13.73;;;-0.70;99.90;;;;;;4997412;28;20430;-62
2020/12/04 05:43:33;;;;;;;33.50;14.20;;;-0.70;99.90;;;;;;5017449;28;20433;-62
2020/12/04 05:46:21;;;;;;;36.30;14.67;;;-0.70;99.90;;;;;;5007316;28;20455;-62
2020/12/04 05:49:07;;;;;;;32.67;15.40;;;-0.70;99.90;;;;;;5007506;28;20460;-62
2020/12/04 05:51:38;;;;;;;35.73;15.83;;;-0.70;99.90;;;;;;5003587;28;20958;-62
2020/12/04 05:54:10;;;;;;;28.70;14.70;;;-0.70;99.90;;;;;;5004685;28;20439;-63
2020/12/04 05:56:38;;;;;;;27.47;14.57;;;-0.70;99.90;;;;;;5021981;28;20431;-62
2020/12/04 05:59:13;;;;;;;25.70;13.43;;;-0.70;99.90;;;;;;4999950;28;20556;-61
2020/12/04 06:01:44;;;;;;;29.83;14.67;;;-0.80;99.90;;;;;;5005048;28;20444;-62
2020/12/04 06:04:14;;;;;;;26.20;12.70;;;-0.70;99.90;;;;;;5002159;28;20661;-61
2020/12/04 06:06:43;;;;;;;29.47;14.20;;;-0.70;99.90;;;;;;4998063;28;20436;-60
2020/12/04 06:09:08;;;;;;;26.23;13.47;;;-0.70;99.90;;;;;;4993066;28;20452;-61
2020/12/04 06:11:37;;;;;;;30.27;14.07;;;-0.70;99.90;;;;;;4999789;28;20461;-62
2020/12/04 06:14:16;;;;;;;33.90;14.20;;;-0.60;99.90;;;;;;5004064;28;20262;-62
2020/12/04 06:16:42;;;;;;;30.80;14.60;;;-0.60;99.90;;;;;;5007027;28;20439;-62
2020/12/04 06:19:42;;;;;;;26.63;13.93;;;-0.60;99.90;;;;;;5007743;28;20452;-61
2020/12/04 06:22:18;;;;;;;31.60;14.30;;;-0.60;99.90;;;;;;4976849;28;20471;-61
2020/12/04 06:24:55;;;;;;;24.27;13.60;;;-0.60;99.90;;;;;;4996460;28;20441;-61
2020/12/04 06:27:44;;;;;;;24.97;13.53;;;-0.70;99.90;;;;;;4996430;28;20430;-61
2020/12/04 06:30:15;;;;;;;31.93;13.40;;;-0.70;99.90;;;;;;5007303;28;20507;-62
2020/12/04 06:32:51;;;;;;;28.60;13.30;;;-0.70;99.90;;;;;;5005068;28;20440;-61
2020/12/04 06:35:52;;;;;;;25.83;13.70;;;-0.70;99.90;;;;;;5005777;28;20532;-62
2020/12/04 06:38:37;;;;;;;21.53;12.17;;;-0.70;99.90;;;;;;4966179;28;20932;-63
2020/12/04 06:41:25;;;;;;;25.87;13.07;;;-0.70;99.90;;;;;;5002373;28;20436;-62
2020/12/04 06:43:53;;;;;;;22.00;12.33;;;-0.70;99.90;;;;;;5021306;28;20433;-62
2020/12/04 06:46:29;;;;;;;26.70;13.00;;;-0.70;99.90;;;;;;5010843;28;20444;-61
2020/12/04 06:49:23;;;;;;;25.47;13.13;;;-0.70;99.90;;;;;;5002778;28;20445;-63
2020/12/04 06:52:16;;;;;;;26.60;11.70;;;-0.70;99.90;;;;;;4999063;28;20546;-61
2020/12/04 06:54:46;;;;;;;26.60;13.20;;;-0.70;99.90;;;;;;5003588;28;20444;-62
2020/12/04 06:57:17;;;;;;;26.80;12.03;;;-0.70;99.90;;;;;;5015361;28;20444;-63
2020/12/04 06:59:43;;;;;;;25.97;12.43;;;-0.70;99.90;;;;;;5002930;28;20455;-61
2020/12/04 07:02:16;;;;;;;23.90;11.90;;;-0.60;99.90;;;;;;5010526;28;20438;-59
2020/12/04 07:04:46;;;;;;;25.67;12.43;;;-0.60;99.90;;;;;;5011939;28;20436;-60
2020/12/04 07:07:21;;;;;;;22.17;12.03;;;-0.60;99.90;;;;;;5005607;28;20498;-61
2020/12/04 07:09:54;;;;;;;23.50;12.17;;;-0.60;99.90;;;;;;5008526;28;20962;-60
2020/12/04 07:12:21;;;;;;;24.00;13.73;;;-0.60;99.90;;;;;;5009405;28;20474;-60
2020/12/04 07:14:55;;;;;;;21.73;12.37;;;-0.60;99.90;;;;;;5005593;28;20425;-61
2020/12/04 07:17:23;;;;;;;25.93;12.07;;;-0.60;99.90;;;;;;5009936;28;20958;-60
2020/12/04 07:19:50;;;;;;;26.37;12.53;;;-0.50;99.90;;;;;;5009113;28;20513;-60
2020/12/04 07:22:17;;;;;;;23.30;13.13;;;-0.60;99.90;;;;;;5006475;28;20956;-60
2020/12/04 07:24:47;;;;;;;21.57;11.73;;;-0.50;99.90;;;;;;5010659;28;20435;-60
2020/12/04 07:27:14;;;;;;;25.93;12.50;;;-0.50;99.90;;;;;;5007177;28;20424;-63
2020/12/04 07:29:40;;;;;;;24.77;13.33;;;-0.50;99.90;;;;;;5005860;28;21027;-62
2020/12/04 07:32:06;;;;;;;26.93;13.03;;;-0.50;99.90;;;;;;5008369;28;20457;-62
2020/12/04 07:34:38;;;;;;;23.80;13.37;;;-0.50;99.90;;;;;;5013831;28;20438;-62
2020/12/04 07:37:08;;;;;;;28.03;15.10;;;-0.50;99.90;;;;;;5011070;28;21008;-64
2020/12/04 07:39:35;;;;;;;30.57;14.17;;;-0.50;99.90;;;;;;5010140;28;20532;-63
2020/12/04 07:42:02;;;;;;;32.40;14.07;;;-0.50;99.90;;;;;;5008510;28;20806;-63
2020/12/04 07:44:34;;;;;;;32.30;14.30;;;-0.50;99.90;;;;;;5009098;28;20425;-63
2020/12/04 07:47:04;;;;;;;32.03;14.53;;;-0.50;99.90;;;;;;5003921;28;20514;-63
2020/12/04 07:49:31;;;;;;;27.57;14.27;;;-0.40;99.90;;;;;;5006548;28;20465;-62
2020/12/04 07:52:12;;;;;;;29.73;14.10;;;-0.40;99.90;;;;;;5009444;28;20464;-63
2020/12/04 07:54:38;;;;;;;27.77;14.20;;;-0.40;99.90;;;;;;5003528;28;20432;-63
2020/12/04 07:57:05;;;;;;;26.10;15.30;;;-0.40;99.90;;;;;;5005448;28;20424;-63
2020/12/04 07:59:35;;;;;;;34.70;18.20;;;-0.40;99.90;;;;;;5001179;28;20988;-63
2020/12/04 08:02:02;;;;;;;29.53;14.70;;;-0.40;99.90;;;;;;5001888;28;20439;-61
2020/12/04 08:04:29;;;;;;;28.20;13.20;;;-0.30;99.90;;;;;;5006398;28;20520;-61
2020/12/04 08:07:09;;;;;;;29.87;13.87;;;-0.30;99.90;;;;;;5011891;28;20421;-60
2020/12/04 08:09:40;;;;;;;23.53;12.57;;;-0.30;99.90;;;;;;5005325;28;20466;-60
2020/12/04 08:12:12;;;;;;;24.30;12.60;;;-0.30;99.90;;;;;;5004829;28;20468;-63
2020/12/04 08:14:39;;;;;;;27.10;12.90;;;-0.20;99.90;;;;;;5006094;28;20424;-61
2020/12/04 08:17:06;;;;;;;27.30;13.67;;;-0.20;99.90;;;;;;5009003;28;20425;-61
2020/12/04 08:19:35;;;;;;;26.10;11.43;;;-0.10;99.90;;;;;;5009490;28;20458;-61
2020/12/04 08:22:07;;;;;;;21.13;11.60;;;-0.10;99.90;;;;;;5013664;28;20926;-61
2020/12/04 08:24:39;;;;;;;26.53;12.33;;;-0.10;99.90;;;;;;5004581;28;20861;-62
2020/12/04 08:27:05;;;;;;;24.13;11.20;;;-0.10;99.90;;;;;;5009594;28;20420;-60
2020/12/04 08:29:31;;;;;;;20.00;11.13;;;0.00;99.90;;;;;;5004896;28;20587;-59
2020/12/04 08:32:12;;;;;;;24.50;11.40;;;0.10;99.90;;;;;;5008716;28;20465;-60
2020/12/04 08:34:38;;;;;;;21.90;12.07;;;0.10;99.90;;;;;;5009158;28;20424;-61
2020/12/04 08:37:09;;;;;;;22.90;12.20;;;0.20;99.90;;;;;;5009744;28;20436;-61
2020/12/04 08:39:49;;;;;;;23.10;12.37;;;0.20;99.80;;;;;;5005927;28;20466;-62
2020/12/04 08:42:29;;;;;;;22.93;11.83;;;0.20;99.70;;;;;;5020381;28;20434;-61
2020/12/04 08:44:59;;;;;;;20.03;11.17;;;0.30;99.80;;;;;;5005108;28;20872;-61
2020/12/04 08:47:35;;;;;;;28.80;12.77;;;0.30;99.70;;;;;;5007519;28;20437;-61
2020/12/04 08:50:10;;;;;;;24.87;12.80;;;0.40;99.70;;;;;;5009614;28;20899;-61
2020/12/04 08:52:39;;;;;;;24.50;12.40;;;0.40;99.30;;;;;;5002807;28;20460;-61
2020/12/04 08:55:10;;;;;;;19.73;11.53;;;0.50;99.20;;;;;;5009702;28;20432;-61
2020/12/04 08:57:36;;;;;;;26.47;12.13;;;0.40;99.40;;;;;;5008947;28;20432;-60
2020/12/04 09:00:05;;;;;;;19.63;10.60;;;0.50;99.50;;;;;;5008148;28;20825;-60
2020/12/04 09:02:34;;;;;;;21.80;11.00;;;0.50;99.40;;;;;;5011421;28;20460;-61
2020/12/04 09:04:59;;;;;;;26.27;11.90;;;0.50;99.60;;;;;;5010138;28;20950;-60
2020/12/04 09:07:25;;;;;;;22.80;12.70;;;0.50;99.30;;;;;;5009253;28;20487;-61
2020/12/04 09:09:51;;;;;;;26.83;12.30;;;0.50;99.40;;;;;;5003917;28;20663;-61
2020/12/04 09:12:16;;;;;;;20.80;9.90;;;0.50;99.50;;;;;;5001869;28;20204;-61
2020/12/04 09:14:42;;;;;;;21.17;11.47;;;0.50;99.50;;;;;;5012201;28;20566;-60
2020/12/04 09:17:08;;;;;;;24.30;12.17;;;0.50;99.40;;;;;;5004682;28;20182;-60
2020/12/04 09:19:34;;;;;;;20.90;10.70;;;0.40;99.40;;;;;;5007481;28;20208;-62
2020/12/04 09:22:00;;;;;;;20.87;9.93;;;0.50;99.40;;;;;;5007259;28;20178;-62
2020/12/04 09:24:25;;;;;;;21.53;10.70;;;0.50;99.30;;;;;;4998115;28;20445;-62
2020/12/04 09:26:51;;;;;;;17.77;9.70;;;0.50;99.30;;;;;;5019456;28;20305;-62
2020/12/04 09:29:16;;;;;;;19.90;10.10;;;0.50;99.40;;;;;;5007024;28;20210;-62
2020/12/04 09:31:42;;;;;;;17.70;10.20;;;0.50;99.30;;;;;;5008988;28;20233;-62
2020/12/04 09:34:08;;;;;;;18.40;10.60;;;0.50;99.50;;;;;;5004347;28;20201;-62
2020/12/04 09:36:34;;;;;;;15.60;9.37;;;0.50;99.50;;;;;;5010846;28;20217;-62
2020/12/04 09:39:00;;;;;;;17.87;10.60;;;0.60;99.60;;;;;;5003661;28;22142;-62
2020/12/04 09:41:25;;;;;;;20.53;10.37;;;0.60;99.40;;;;;;5008960;28;20453;-62
2020/12/04 09:43:51;;;;;;;18.70;9.80;;;0.70;99.40;;;;;;5009422;28;20178;-62
2020/12/04 09:46:17;;;;;;;17.53;9.50;;;0.70;99.20;;;;;;5012083;28;20281;-60
2020/12/04 09:48:42;;;;;;;16.80;8.83;;;0.80;99.20;;;;;;5005593;28;20213;-60
2020/12/04 09:51:08;;;;;;;14.73;9.30;;;0.80;99.10;;;;;;5010694;28;20594;-60
2020/12/04 09:53:34;;;;;;;21.20;10.80;;;0.90;99.00;;;;;;5005981;28;20198;-62
2020/12/04 09:56:00;;;;;;;18.83;10.13;;;0.90;98.90;;;;;;5002046;28;20197;-62
2020/12/04 09:58:26;;;;;;;17.63;9.53;;;0.90;98.90;;;;;;5001049;28;20470;-63
2020/12/04 10:00:51;;;;;;;17.70;9.00;;;0.90;98.80;;;;;;5005544;28;20180;-61
2020/12/04 10:03:17;;;;;;;21.73;9.57;;;1.00;98.60;;;;;;4991553;28;20289;-63
2020/12/04 10:05:43;;;;;;;19.43;9.07;;;1.00;98.60;;;;;;5010490;28;20199;-62
2020/12/04 10:08:08;;;;;;;20.43;9.67;;;1.00;98.80;;;;;;5005325;28;20668;-63
2020/12/04 10:10:34;;;;;;;17.37;9.10;;;1.10;98.50;;;;;;5009180;28;20183;-62
2020/12/04 10:13:00;;;;;;;17.97;9.50;;;1.10;98.30;;;;;;5009705;28;20205;-61
2020/12/04 10:15:25;;;;;;;17.60;9.77;;;1.10;98.30;;;;;;5007636;28;20678;-60
2020/12/04 10:17:51;;;;;;;16.07;9.03;;;1.20;98.30;;;;;;5016975;28;20195;-60
2020/12/04 10:20:16;;;;;;;17.00;8.97;;;1.20;98.30;;;;;;5016514;28;20212;-61
2020/12/04 10:22:42;;;;;;;19.17;9.77;;;1.20;98.20;;;;;;5012832;28;20286;-62
2020/12/04 10:25:08;;;;;;;18.43;9.30;;;1.30;98.00;;;;;;5008211;28;20220;-60
2020/12/04 10:27:33;;;;;;;22.17;10.83;;;1.30;97.80;;;;;;5010683;28;20265;-62
2020/12/04 10:29:59;;;;;;;20.50;10.37;;;1.30;97.50;;;;;;5009970;28;20210;-62
2020/12/04 10:32:25;;;;;;;20.77;10.00;;;1.30;97.50;;;;;;5011081;28;20230;-62
2020/12/04 10:34:50;;;;;;;18.30;10.30;;;1.40;97.50;;;;;;5010409;28;20324;-63
2020/12/04 10:37:16;;;;;;;20.77;11.03;;;1.40;97.50;;;;;;5007570;28;20179;-62
2020/12/04 10:39:42;;;;;;;23.40;10.87;;;1.40;97.50;;;;;;5002933;28;20596;-62
2020/12/04 10:42:07;;;;;;;18.43;10.30;;;1.40;97.30;;;;;;5010024;28;20296;-63
2020/12/04 10:44:33;;;;;;;22.73;11.53;;;1.50;97.20;;;;;;4999819;28;20657;-62
2020/12/04 10:47:00;;;;;;;19.40;10.57;;;1.50;97.20;;;;;;5010621;28;20460;-61
2020/12/04 10:49:26;;;;;;;20.33;11.27;;;1.50;97.10;;;;;;5008754;28;20469;-62
2020/12/04 10:51:56;;;;;;;19.40;10.90;;;1.50;97.20;;;;;;5012071;28;20197;-63
2020/12/04 10:54:22;;;;;;;21.00;10.40;;;1.50;97.20;;;;;;5009791;28;20189;-62
2020/12/04 10:56:48;;;;;;;21.50;11.00;;;1.60;97.20;;;;;;4995182;28;20442;-62
2020/12/04 10:59:14;;;;;;;19.90;10.90;;;1.60;97.30;;;;;;5008122;28;20218;-62
2020/12/04 11:01:46;;;;;;;19.50;11.23;;;1.60;97.20;;;;;;4999324;28;20444;-62
2020/12/04 11:06:56;;;;;;;18.83;10.03;;;1.60;97.30;;;;;;5010933;28;20448;-62
2020/12/04 11:09:22;;;;;;;17.17;10.20;;;1.60;97.40;;;;;;5005826;28;20469;-63
2020/12/04 11:11:48;;;;;;;19.50;10.53;;;1.60;97.40;;;;;;5007250;28;20469;-62
2020/12/04 11:14:14;;;;;;;22.90;11.50;;;1.60;97.20;;;;;;5006397;28;20187;-63
2020/12/04 11:16:41;;;;;;;18.57;11.17;;;1.60;97.10;;;;;;5006592;28;20442;-61
2020/12/04 11:19:07;;;;;;;21.80;11.03;;;1.60;97.10;;;;;;5010632;28;20771;-60
2020/12/04 11:21:33;;;;;;;19.20;10.30;;;1.60;97.00;;;;;;5004595;28;20532;-60
2020/12/04 11:23:59;;;;;;;18.67;10.43;;;1.70;97.00;;;;;;5006688;28;20530;-60
2020/12/04 11:26:24;;;;;;;21.40;10.47;;;1.70;97.00;;;;;;5007197;28;20201;-62
2020/12/04 11:28:50;;;;;;;19.83;10.37;;;1.70;97.00;;;;;;5023067;28;20281;-61
2020/12/04 11:31:16;;;;;;;23.30;11.00;;;1.70;96.80;;;;;;5010151;28;20202;-63
2020/12/04 11:33:41;;;;;;;18.63;11.20;;;1.70;96.90;;;;;;5011356;28;20198;-61
2020/12/04 11:36:07;;;;;;;23.07;11.03;;;1.70;96.90;;;;;;5012263;28;20183;-64
2020/12/04 11:38:32;;;;;;;20.40;10.97;;;1.80;96.90;;;;;;5021185;28;20202;-62
2020/12/04 11:40:58;;;;;;;19.53;11.03;;;1.80;96.90;;;;;;5009516;28;20182;-63
2020/12/04 11:43:24;;;;;;;20.20;10.63;;;1.80;96.80;;;;;;5006259;28;20188;-63
2020/12/04 11:45:49;;;;;;;17.97;10.40;;;1.80;96.50;;;;;;5011482;28;20268;-61
2020/12/04 11:48:15;;;;;;;20.80;10.83;;;1.80;96.50;;;;;;4999258;28;20183;-62
2020/12/04 11:50:41;;;;;;;24.73;11.87;;;1.80;96.50;;;;;;4997107;28;20190;-61
2020/12/04 11:53:06;;;;;;;24.60;11.37;;;1.80;96.40;;;;;;5007648;28;20178;-62
2020/12/04 11:55:32;;;;;;;22.33;10.70;;;1.90;96.50;;;;;;5005811;28;20581;-61
2020/12/04 11:57:58;;;;;;;21.37;10.67;;;1.90;96.30;;;;;;4998671;28;20241;-63
2020/12/04 12:00:23;;;;;;;19.43;10.37;;;1.90;96.30;;;;;;5010957;28;20178;-62
2020/12/04 12:02:49;;;;;;;20.70;10.90;;;2.00;96.30;;;;;;5009404;28;20266;-63
2020/12/04 12:05:15;;;;;;;20.67;11.70;;;2.00;96.20;;;;;;5006835;28;20322;-62
2020/12/04 12:07:42;;;;;;;22.70;12.47;;;2.00;96.20;;;;;;5004849;28;20641;-65
2020/12/04 12:10:08;;;;;;;21.70;11.77;;;2.00;96.10;;;;;;5009344;28;20589;-62
2020/12/04 12:12:34;;;;;;;32.17;14.70;;;2.00;96.10;;;;;;5009197;28;20471;-62
2020/12/04 12:15:00;;;;;;;25.67;13.77;;;2.00;96.00;;;;;;5009792;28;21003;-62
2020/12/04 12:17:26;;;;;;;22.37;13.10;;;2.10;95.90;;;;;;5012111;28;20441;-62
2020/12/04 12:19:51;;;;;;;48.63;21.47;;;2.10;95.90;;;;;;5010036;28;20203;-62
2020/12/04 12:22:17;;;;;;;30.43;15.10;;;2.10;95.70;;;;;;5009920;28;20186;-62
2020/12/04 12:24:43;;;;;;;29.50;12.87;;;2.10;95.80;;;;;;5008472;28;20275;-63
2020/12/04 12:27:09;;;;;;;29.00;15.27;;;2.10;96.00;;;;;;5010338;28;20174;-63
2020/12/04 12:29:36;;;;;;;27.43;15.37;;;2.20;95.80;;;;;;5008097;28;20465;-62
2020/12/04 12:32:03;;;;;;;21.53;12.60;;;2.20;95.80;;;;;;5010734;28;20456;-62
2020/12/04 12:37:14;;;;;;;28.40;13.27;;;2.20;95.80;;;;;;5011458;28;20426;-62
2020/12/04 12:39:40;;;;;;;31.03;15.27;;;2.20;95.70;;;;;;5011675;28;20524;-62